Juliana Airport, Saint Maartin

10:26 PM AST on December 17, 2014 (GMT -0400)
Cole Bay, St.Maarten | Change Station
CLOSE
Current Station
Personal Weather Station
Location: Cole Bay, SINT MAARTEN
Elevation: 171 ft
Nearby Weather Stations

Elev 171 ft 18.04 °N, 63.08 °W | Updated 56 seconds ago

Partly Cloudy
Partly Cloudy
75.8 °F
Feels Like 76 °F
N
7.0
Wind Variable Wind from NNW
Gusts 16.0 mph

Today
High -- | Low -- °F
--% Chance of Precip.
Yesterday
High -- | Low -- °F
Precip. -- in
6:37 AM 5:40 PM
Waning Crescent, 18% visible
Pressure 30.04 in
Visibility 6.2 miles
Clouds Few 2100 ft
Heat Index 76 °F
Dew Point 70 °F
Humidity 83%
Rainfall 0.00 in
Snow Depth Not available.
UV 0 out of 12
Pollen Not available.
Air Quality Not available.
Flu Activity Not available.
METAR TNCM 180200Z 05009KT 9999 FEW021 26/21 Q1017 A3003

More Conditions Fewer Conditions

Pressure 30.04 in
Visibility 6.2 miles
Clouds Few 2100 ft
Heat Index 76 °F
Dew Point 70 °F
Humidity 83%
Rainfall 0.00 in
Snow Depth Not available.
UV 0 out of 12
Pollen Not available.
Air Quality Not available.
Flu Activity Not available.
METAR TNCM 180200Z 05009KT 9999 FEW021 26/21 Q1017 A3003

More Conditions Fewer Conditions

10-Day Weather Forecast

Almanac

Astronomy

Dec. 17, 2014 Rise Set
Actual Time
Civil Twilight
Nautical Twilight
Astronomical Twilight
Moon
Length of Visible Light
Length of Day
Tomorrow will be .
, % of the Moon is Illuminated

Today's Extremes

Country Highs Country Lows

Community

WunderPhotos

Upload Photos

1,778,859 photos uploaded!

WunderBlogs® & News

Nearby

Air Quality

  Air Quality AQ Index Pollutant
Not available.

Snow Depth

Station Depth Elevation

Earthquake Activity

City Distance Mag. Time & Date
Minimum magnitude displayed is 2.5.

Coastal Water Temperatures

Place Temperature

Nearby Weather Stations